createdAt,value
2022-07-30T00:02:09.940Z,1.70
2022-07-30T00:04:37.645Z,1.50
2022-07-30T00:07:05.465Z,1.40
2022-07-30T00:09:34.299Z,1.90
2022-07-30T00:12:02.261Z,1.40
2022-07-30T00:14:30.692Z,1.25
2022-07-30T00:16:58.599Z,1.50
2022-07-30T00:19:28.100Z,1.52
2022-07-30T00:21:55.892Z,1.40
2022-07-30T00:24:24.158Z,1.50
2022-07-30T00:26:52.296Z,1.60
2022-07-30T00:29:20.121Z,1.35
2022-07-30T00:31:47.905Z,1.55
2022-07-30T00:34:15.657Z,1.70
2022-07-30T00:36:44.729Z,1.63
2022-07-30T00:39:12.583Z,1.77
2022-07-30T00:41:54.233Z,1.65
2022-07-30T00:44:21.972Z,1.40
2022-07-30T00:46:49.745Z,1.83
2022-07-30T00:49:17.646Z,1.58
2022-07-30T00:51:46.826Z,1.55
2022-07-30T00:54:15.397Z,1.48
2022-07-30T00:56:43.463Z,1.73
2022-07-30T00:59:11.349Z,1.70
2022-07-30T01:01:39.099Z,1.77
2022-07-30T01:04:11.346Z,1.63
2022-07-30T01:06:39.584Z,1.58
2022-07-30T01:09:08.782Z,1.60
2022-07-30T01:11:38.986Z,1.38
2022-07-30T01:14:07.539Z,1.55
2022-07-30T01:16:35.669Z,1.77
2022-07-30T01:19:24.822Z,1.40
2022-07-30T01:21:58.653Z,2.00
2022-07-30T01:24:32.070Z,1.60
2022-07-30T01:27:03.197Z,1.67
2022-07-30T01:29:33.307Z,1.77
2022-07-30T01:32:03.624Z,1.55
2022-07-30T01:34:33.553Z,1.40
2022-07-30T01:37:03.448Z,1.60
2022-07-30T01:39:31.585Z,1.42
2022-07-30T01:42:05.198Z,1.55
2022-07-30T01:44:33.561Z,1.70
2022-07-30T01:47:03.521Z,1.67
2022-07-30T01:49:31.980Z,1.85
2022-07-30T01:52:01.032Z,1.42
2022-07-30T01:54:30.163Z,1.20
2022-07-30T01:57:01.467Z,1.70
2022-07-30T01:59:31.511Z,1.75
2022-07-30T02:01:59.636Z,1.20
2022-07-30T02:04:28.145Z,1.70
2022-07-30T02:07:01.327Z,1.58
2022-07-30T02:09:32.392Z,1.60
2022-07-30T02:12:20.802Z,1.42
2022-07-30T02:14:50.953Z,1.70
2022-07-30T02:17:26.594Z,1.25
2022-07-30T02:19:58.825Z,1.35
2022-07-30T02:22:29.914Z,1.17
2022-07-30T02:24:59.656Z,1.60
2022-07-30T02:27:32.003Z,1.38
2022-07-30T02:30:02.952Z,1.70
2022-07-30T02:32:37.229Z,1.80
2022-07-30T02:35:10.530Z,1.60
2022-07-30T02:37:43.987Z,1.60
2022-07-30T02:40:17.903Z,1.80
2022-07-30T02:42:48.236Z,1.55
2022-07-30T02:45:17.663Z,1.65
2022-07-30T02:47:46.684Z,1.50
2022-07-30T02:50:15.205Z,1.75
2022-07-30T02:52:43.595Z,1.70
2022-07-30T02:55:12.295Z,1.40
2022-07-30T02:57:43.787Z,2.00
2022-07-30T03:00:14.076Z,1.50
2022-07-30T03:02:45.287Z,1.45
2022-07-30T03:05:14.987Z,1.58
2022-07-30T03:07:43.349Z,1.60
2022-07-30T03:10:12.916Z,1.75
2022-07-30T03:12:41.785Z,1.73
2022-07-30T03:15:10.768Z,1.73
2022-07-30T03:17:43.689Z,1.75
2022-07-30T03:20:14.611Z,1.70
2022-07-30T03:22:45.258Z,1.73
2022-07-30T03:25:15.290Z,1.67
2022-07-30T03:27:43.966Z,2.00
2022-07-30T03:30:12.213Z,1.45
2022-07-30T03:32:42.874Z,1.80
2022-07-30T03:35:16.978Z,1.70
2022-07-30T03:37:46.014Z,1.95
2022-07-30T03:40:15.229Z,2.08
2022-07-30T03:42:43.453Z,2.00
2022-07-30T03:45:13.586Z,2.08
2022-07-30T03:47:44.347Z,1.90
2022-07-30T03:50:13.277Z,2.00
2022-07-30T03:52:42.153Z,1.92
2022-07-30T03:55:11.738Z,1.67
2022-07-30T03:57:39.639Z,1.92
2022-07-30T04:00:09.230Z,2.22
2022-07-30T04:02:43.403Z,1.90
2022-07-30T04:05:12.457Z,1.88
2022-07-30T04:07:44.719Z,1.85
2022-07-30T04:10:13.828Z,2.00
2022-07-30T04:12:41.595Z,2.00
2022-07-30T04:16:38.078Z,1.98
2022-07-30T04:18:05.596Z,1.88
2022-07-30T04:20:35.963Z,1.77
2022-07-30T04:23:04.119Z,1.67
2022-07-30T04:25:32.689Z,1.70
2022-07-30T04:28:03.744Z,1.80
2022-07-30T04:30:33.216Z,1.75
2022-07-30T04:33:03.164Z,1.98
2022-07-30T04:35:50.612Z,1.98
2022-07-30T04:38:20.364Z,1.80
2022-07-30T04:40:49.304Z,1.52
2022-07-30T04:43:17.485Z,2.10
2022-07-30T04:45:45.245Z,2.00
2022-07-30T04:48:14.316Z,2.08
2022-07-30T04:50:43.859Z,1.90
2022-07-30T04:53:12.425Z,1.70
2022-07-30T04:55:43.103Z,1.80
2022-07-30T04:58:11.918Z,2.22
2022-07-30T05:00:41.443Z,1.80
2022-07-30T05:03:09.684Z,2.00
2022-07-30T05:05:38.782Z,1.63
2022-07-30T05:08:06.630Z,1.70
2022-07-30T05:10:34.456Z,1.80
2022-07-30T05:13:03.034Z,1.60
2022-07-30T05:15:36.275Z,1.58
2022-07-30T05:18:05.341Z,1.60
2022-07-30T05:20:33.023Z,1.83
2022-07-30T05:23:03.996Z,1.90
2022-07-30T05:25:31.729Z,1.77
2022-07-30T05:27:59.429Z,1.63
2022-07-30T05:30:27.460Z,1.67
2022-07-30T05:32:56.033Z,1.90
2022-07-30T05:35:24.047Z,1.60
2022-07-30T05:37:51.808Z,1.60
2022-07-30T05:40:20.897Z,2.10
2022-07-30T05:42:48.601Z,3.58
2022-07-30T05:45:16.313Z,1.73
2022-07-30T05:47:44.127Z,2.13
2022-07-30T05:50:12.612Z,2.15
2022-07-30T05:52:40.402Z,1.75
2022-07-30T05:55:09.934Z,2.05
2022-07-30T05:57:42.023Z,1.50
2022-07-30T06:00:11.458Z,1.63
2022-07-30T06:02:40.621Z,1.95
2022-07-30T06:05:09.326Z,1.73
2022-07-30T06:07:38.400Z,1.98
2022-07-30T06:10:07.004Z,1.90
2022-07-30T06:12:34.901Z,2.03
2022-07-30T06:15:04.133Z,1.60
2022-07-30T06:17:32.261Z,1.80
2022-07-30T06:20:11.181Z,1.90
2022-07-30T06:22:39.412Z,1.60
2022-07-30T06:25:09.071Z,1.75
2022-07-30T06:27:39.761Z,1.60
2022-07-30T06:30:12.061Z,1.65
2022-07-30T06:32:40.037Z,1.55
2022-07-30T06:35:09.156Z,1.83
2022-07-30T06:37:58.652Z,1.60
2022-07-30T06:40:25.387Z,1.73
2022-07-30T06:42:53.118Z,1.83
2022-07-30T06:45:22.930Z,1.90
2022-07-30T06:47:51.373Z,1.85
2022-07-30T06:50:20.438Z,1.73
2022-07-30T06:52:48.277Z,1.77
2022-07-30T06:55:16.015Z,1.60
2022-07-30T06:57:43.744Z,2.05
2022-07-30T07:00:13.255Z,1.70
2022-07-30T07:02:43.301Z,1.73
2022-07-30T07:05:11.657Z,1.70
2022-07-30T07:07:43.123Z,1.95
2022-07-30T07:10:14.211Z,1.88
2022-07-30T07:12:41.950Z,1.58
2022-07-30T07:15:10.645Z,1.60
2022-07-30T07:17:40.321Z,2.00
2022-07-30T07:20:10.618Z,1.67
2022-07-30T07:22:38.390Z,1.92
2022-07-30T07:25:07.123Z,1.65
2022-07-30T07:27:34.849Z,2.03
2022-07-30T07:30:05.396Z,1.90
2022-07-30T07:32:34.205Z,2.08
2022-07-30T07:35:01.934Z,2.35
2022-07-30T07:37:31.098Z,2.10
2022-07-30T07:39:59.722Z,2.50
2022-07-30T07:42:27.485Z,2.33
2022-07-30T07:44:55.205Z,2.13
2022-07-30T07:47:22.911Z,2.15
2022-07-30T07:49:50.599Z,2.08
2022-07-30T07:52:18.328Z,2.30
2022-07-30T07:54:47.465Z,2.10
2022-07-30T07:57:15.493Z,2.30
2022-07-30T07:59:43.358Z,2.13
2022-07-30T08:02:11.187Z,2.60
2022-07-30T08:04:39.144Z,2.25
2022-07-30T08:07:07.547Z,2.58
2022-07-30T08:09:43.520Z,2.50
2022-07-30T08:12:14.121Z,2.15
2022-07-30T08:14:41.938Z,2.60
2022-07-30T08:17:09.967Z,2.55
2022-07-30T08:19:37.706Z,2.60
2022-07-30T08:22:05.442Z,2.70
2022-07-30T08:24:33.610Z,2.15
2022-07-30T08:27:03.539Z,2.22
2022-07-30T08:29:32.999Z,2.33
2022-07-30T08:32:00.989Z,2.08
2022-07-30T08:34:29.267Z,2.22
2022-07-30T08:36:57.081Z,2.08
2022-07-30T08:39:24.831Z,2.20
2022-07-30T08:41:52.743Z,2.30
2022-07-30T08:44:21.751Z,1.88
2022-07-30T08:46:53.326Z,2.33
2022-07-30T08:49:21.064Z,2.25
2022-07-30T08:51:49.306Z,2.10
2022-07-30T08:54:17.604Z,1.98
2022-07-30T08:56:45.768Z,2.00
2022-07-30T08:59:13.761Z,2.30
2022-07-30T09:01:41.484Z,2.30
2022-07-30T09:04:11.105Z,2.50
2022-07-30T09:06:40.761Z,1.90
2022-07-30T09:09:08.544Z,2.00
2022-07-30T09:11:36.683Z,2.60
2022-07-30T09:14:09.324Z,2.13
2022-07-30T09:16:37.206Z,2.60
2022-07-30T09:19:14.827Z,2.75
2022-07-30T09:21:42.615Z,2.20
2022-07-30T09:24:13.024Z,2.17
2022-07-30T09:26:55.436Z,2.22
2022-07-30T09:29:24.620Z,2.10
2022-07-30T09:31:56.801Z,2.33
2022-07-30T09:34:27.220Z,2.45
2022-07-30T09:36:55.953Z,2.33
2022-07-30T09:39:33.678Z,2.28
2022-07-30T09:42:04.318Z,2.28
2022-07-30T09:44:32.551Z,2.00
2022-07-30T09:47:03.440Z,2.28
2022-07-30T09:49:32.894Z,2.10
2022-07-30T09:52:00.831Z,2.30
2022-07-30T09:57:35.193Z,2.38
2022-07-30T10:00:18.725Z,2.45
2022-07-30T10:02:47.727Z,2.13
2022-07-30T10:05:19.267Z,2.20
2022-07-30T10:07:51.237Z,2.38
2022-07-30T10:10:20.863Z,2.03
2022-07-30T10:12:49.855Z,2.10
2022-07-30T10:15:20.507Z,2.40
2022-07-30T10:17:48.789Z,2.60
2022-07-30T10:20:18.369Z,2.35
2022-07-30T10:22:48.009Z,1.83
2022-07-30T10:25:19.416Z,2.20
2022-07-30T10:27:49.177Z,1.85
2022-07-30T10:30:17.359Z,1.92
2022-07-30T10:32:47.634Z,2.10
2022-07-30T10:35:34.819Z,2.65
2022-07-30T10:38:08.554Z,2.30
2022-07-30T10:40:39.835Z,2.03
2022-07-30T10:43:37.360Z,2.05
2022-07-30T10:46:19.814Z,2.30
2022-07-30T10:48:51.105Z,2.10
2022-07-30T10:51:34.585Z,2.03
2022-07-30T10:54:02.570Z,2.10
2022-07-30T10:56:30.338Z,2.35
2022-07-30T10:58:59.492Z,1.98
2022-07-30T11:02:09.431Z,2.22
2022-07-30T11:04:37.834Z,2.20
2022-07-30T11:07:31.218Z,2.08
2022-07-30T11:10:09.095Z,2.28
2022-07-30T11:12:54.505Z,2.22
2022-07-30T11:15:22.600Z,2.10
2022-07-30T11:18:04.373Z,2.00
2022-07-30T11:20:32.983Z,2.20
2022-07-30T11:23:14.198Z,1.95
2022-07-30T11:25:51.934Z,2.63
2022-07-30T11:28:37.600Z,1.90
2022-07-30T11:31:55.783Z,2.33
2022-07-30T11:34:29.820Z,2.40
2022-07-30T11:37:18.891Z,1.85
2022-07-30T11:40:13.927Z,2.20
2022-07-30T11:42:43.446Z,2.22
2022-07-30T11:45:23.193Z,2.05
2022-07-30T11:47:52.923Z,2.45
2022-07-30T11:50:21.208Z,2.00
2022-07-30T11:52:51.800Z,1.92
2022-07-30T11:55:30.164Z,2.10
2022-07-30T11:57:58.825Z,2.45
2022-07-30T12:00:27.255Z,1.85
2022-07-30T12:02:54.975Z,2.10
2022-07-30T12:05:26.695Z,1.92
2022-07-30T12:07:59.345Z,2.00
2022-07-30T12:10:28.447Z,2.20
2022-07-30T12:13:08.121Z,2.10
2022-07-30T12:15:37.389Z,2.10
2022-07-30T12:18:25.275Z,2.10
2022-07-30T12:20:57.790Z,2.30
2022-07-30T12:23:27.996Z,1.92
2022-07-30T12:25:57.431Z,2.22
2022-07-30T12:28:27.384Z,2.15
2022-07-30T12:30:56.062Z,2.10
2022-07-30T12:33:24.476Z,2.20
2022-07-30T12:35:53.796Z,2.20
2022-07-30T12:38:23.032Z,2.03
2022-07-30T12:40:55.372Z,1.70
2022-07-30T12:43:46.779Z,2.10
2022-07-30T12:46:16.228Z,2.08
2022-07-30T12:48:58.106Z,2.22
2022-07-30T12:51:32.493Z,2.38
2022-07-30T12:54:19.350Z,1.83
2022-07-30T12:56:59.134Z,2.70
2022-07-30T12:59:28.884Z,2.17
2022-07-30T13:02:00.105Z,2.22
2022-07-30T13:04:31.465Z,2.20
2022-07-30T13:07:07.038Z,2.00
2022-07-30T13:09:35.168Z,2.15
2022-07-30T13:12:03.020Z,2.45
2022-07-30T13:14:32.262Z,2.13
2022-07-30T13:17:00.460Z,2.45
2022-07-30T13:19:28.936Z,2.30
2022-07-30T13:21:56.652Z,2.28
2022-07-30T13:24:24.453Z,2.55
2022-07-30T13:26:52.307Z,2.00
2022-07-30T13:29:20.042Z,2.25
2022-07-30T13:31:49.170Z,2.20
2022-07-30T13:34:16.873Z,2.25
2022-07-30T13:36:44.717Z,2.20
2022-07-30T13:39:12.907Z,2.17
2022-07-30T13:41:41.699Z,2.13
2022-07-30T13:44:09.462Z,2.15
2022-07-30T13:46:39.748Z,2.00
2022-07-30T13:49:10.780Z,2.30
2022-07-30T13:51:38.879Z,2.10
2022-07-30T13:54:07.254Z,2.13
2022-07-30T13:56:35.038Z,2.00
2022-07-30T13:59:08.841Z,1.80
2022-07-30T14:01:37.755Z,1.95
2022-07-30T14:04:06.548Z,2.30
2022-07-30T14:06:35.589Z,2.08
2022-07-30T14:09:07.782Z,2.20
2022-07-30T14:11:35.846Z,1.88
2022-07-30T14:14:05.055Z,2.50
2022-07-30T14:16:45.123Z,2.42
2022-07-30T14:19:24.083Z,2.17
2022-07-30T14:21:54.374Z,2.17
2022-07-30T14:24:22.382Z,2.30
2022-07-30T14:26:55.866Z,2.50
2022-07-30T14:29:25.994Z,2.13
2022-07-30T14:31:53.740Z,2.08
2022-07-30T14:34:21.585Z,2.25
2022-07-30T14:36:49.290Z,1.77
2022-07-30T14:39:18.381Z,2.10
2022-07-30T14:41:46.127Z,2.00
2022-07-30T14:44:13.880Z,2.08
2022-07-30T14:46:52.245Z,2.00
2022-07-30T14:49:20.905Z,2.45
2022-07-30T14:51:48.821Z,1.85
2022-07-30T14:54:17.932Z,2.15
2022-07-30T14:56:45.750Z,2.17
2022-07-30T14:59:13.640Z,2.25
2022-07-30T15:01:42.157Z,2.40
2022-07-30T15:04:11.411Z,2.20
2022-07-30T15:06:40.686Z,2.53
2022-07-30T15:09:08.829Z,2.20
2022-07-30T15:11:56.663Z,2.75
2022-07-30T15:14:26.873Z,2.30
2022-07-30T15:16:59.392Z,2.40
2022-07-30T15:19:33.975Z,2.13
2022-07-30T15:22:03.039Z,2.38
2022-07-30T15:24:31.514Z,2.65
2022-07-30T15:27:01.281Z,2.40
2022-07-30T15:29:30.093Z,2.80
2022-07-30T15:31:59.911Z,2.20
2022-07-30T15:34:33.894Z,2.80
2022-07-30T15:37:03.556Z,2.40
2022-07-30T15:39:33.521Z,2.10
2022-07-30T15:42:04.263Z,2.33
2022-07-30T15:44:32.227Z,2.50
2022-07-30T15:46:59.996Z,2.35
2022-07-30T15:49:28.781Z,2.88
2022-07-30T15:51:57.381Z,2.03
2022-07-30T15:54:25.153Z,2.40
2022-07-30T15:56:54.647Z,2.40
2022-07-30T15:59:32.695Z,2.10
2022-07-30T16:02:00.691Z,2.25
2022-07-30T16:04:32.339Z,2.28
2022-07-30T16:07:00.845Z,2.13
2022-07-30T16:09:29.945Z,2.25
2022-07-30T16:11:58.157Z,2.50
2022-07-30T16:14:26.450Z,2.10
2022-07-30T16:16:55.597Z,2.40
2022-07-30T16:19:23.380Z,2.40
2022-07-30T16:21:51.126Z,1.95
2022-07-30T16:24:18.935Z,2.13
2022-07-30T16:26:46.784Z,1.83
2022-07-30T16:29:14.683Z,2.65
2022-07-30T16:31:43.648Z,2.63
2022-07-30T16:34:12.709Z,2.40
2022-07-30T16:36:40.545Z,2.60
2022-07-30T16:39:08.415Z,3.10
2022-07-30T16:41:36.318Z,2.65
2022-07-30T16:44:05.429Z,2.65
2022-07-30T16:46:33.132Z,2.50
2022-07-30T16:49:00.905Z,2.50
2022-07-30T16:51:31.225Z,2.28
2022-07-30T16:53:59.047Z,2.55
2022-07-30T16:56:26.887Z,2.85
2022-07-30T16:58:54.768Z,2.50
2022-07-30T17:01:22.575Z,2.53
2022-07-30T17:03:50.321Z,2.28
2022-07-30T17:06:18.081Z,2.50
2022-07-30T17:08:47.291Z,2.58
2022-07-30T17:11:46.111Z,2.70
2022-07-30T17:14:04.742Z,2.47
2022-07-30T17:16:32.566Z,2.95
2022-07-30T17:19:00.286Z,2.63
2022-07-30T17:21:37.837Z,2.50
2022-07-30T17:24:11.122Z,2.90
2022-07-30T17:26:41.657Z,2.58
2022-07-30T17:29:13.934Z,2.33
2022-07-30T17:31:43.875Z,2.65
2022-07-30T17:34:13.750Z,4.45
2022-07-30T17:36:42.880Z,5.18
2022-07-30T17:40:27.387Z,6.35
2022-07-30T17:42:09.754Z,15.30
2022-07-30T17:44:38.119Z,6.45
2022-07-30T17:47:07.964Z,18.63
2022-07-30T17:49:40.147Z,16.65
2022-07-30T17:52:08.655Z,9.07
2022-07-30T17:54:37.753Z,3.30
2022-07-30T17:57:05.590Z,4.10
2022-07-30T17:59:33.259Z,2.70
2022-07-30T18:02:04.161Z,2.30
2022-07-30T18:04:32.362Z,2.40
2022-07-30T18:07:00.357Z,2.10
2022-07-30T18:09:28.100Z,2.03
2022-07-30T18:11:57.209Z,2.22
2022-07-30T18:14:27.869Z,2.15
2022-07-30T18:16:56.593Z,2.08
2022-07-30T18:19:27.174Z,1.92
2022-07-30T18:21:55.591Z,2.05
2022-07-30T18:24:24.818Z,2.10
2022-07-30T18:26:52.872Z,2.45
2022-07-30T18:29:22.133Z,2.58
2022-07-30T18:31:49.912Z,2.10
2022-07-30T18:34:17.679Z,2.42
2022-07-30T18:36:45.888Z,2.13
2022-07-30T18:39:13.569Z,2.47
2022-07-30T18:41:41.317Z,2.53
2022-07-30T18:44:09.032Z,2.40
2022-07-30T18:46:38.080Z,2.08
2022-07-30T18:49:21.160Z,2.47
2022-07-30T18:51:53.524Z,2.05
2022-07-30T18:54:21.371Z,2.10
2022-07-30T18:56:49.088Z,2.70
2022-07-30T18:59:16.933Z,2.15
2022-07-30T19:01:46.035Z,2.00
2022-07-30T19:04:13.780Z,2.42
2022-07-30T19:06:41.733Z,2.67
2022-07-30T19:09:17.378Z,2.15
2022-07-30T19:11:46.095Z,2.53
2022-07-30T19:14:14.554Z,2.97
2022-07-30T19:16:42.907Z,2.88
2022-07-30T19:19:13.539Z,2.35
2022-07-30T19:21:41.513Z,3.05
2022-07-30T19:24:09.980Z,2.60
2022-07-30T19:26:39.529Z,2.20
2022-07-30T19:29:08.067Z,2.30
2022-07-30T19:31:36.183Z,2.40
2022-07-30T19:34:06.962Z,2.72
2022-07-30T19:36:36.192Z,2.65
2022-07-30T19:39:07.164Z,2.53
2022-07-30T19:41:40.319Z,2.45
2022-07-30T19:44:08.199Z,2.53
2022-07-30T19:46:37.272Z,2.20
2022-07-30T19:52:10.379Z,2.83
2022-07-30T19:54:42.300Z,2.55
2022-07-30T19:57:10.111Z,2.63
2022-07-30T19:59:46.339Z,2.53
2022-07-30T20:02:25.760Z,2.33
2022-07-30T20:04:54.577Z,2.72
2022-07-30T20:10:11.908Z,2.40
2022-07-30T20:12:42.205Z,2.70
2022-07-30T20:15:14.637Z,2.45
2022-07-30T20:17:42.618Z,2.80
2022-07-30T20:20:11.608Z,2.53
2022-07-30T20:22:40.712Z,2.65
2022-07-30T20:25:09.747Z,2.58
2022-07-30T20:27:38.911Z,2.38
2022-07-30T20:30:08.781Z,2.20
2022-07-30T20:32:36.680Z,2.50
2022-07-30T20:35:05.855Z,2.50
2022-07-30T20:37:33.570Z,2.20
2022-07-30T20:40:23.196Z,2.65
2022-07-30T20:42:50.996Z,2.05
2022-07-30T20:45:18.688Z,2.10
2022-07-30T20:47:56.590Z,2.22
2022-07-30T20:50:30.395Z,2.40
2022-07-30T20:52:58.876Z,2.60
2022-07-30T20:55:28.989Z,2.22
2022-07-30T20:58:09.961Z,2.30
2022-07-30T21:00:49.956Z,2.65
2022-07-30T21:03:19.001Z,2.30
2022-07-30T21:05:52.412Z,2.47
2022-07-30T21:08:21.182Z,2.72
2022-07-30T21:10:55.193Z,2.40
2022-07-30T21:13:25.001Z,2.60
2022-07-30T21:16:02.511Z,2.38
2022-07-30T21:18:31.678Z,2.60
2022-07-30T21:21:04.914Z,2.45
2022-07-30T21:23:33.775Z,2.22
2022-07-30T21:26:10.482Z,2.10
2022-07-30T21:28:41.266Z,2.42
2022-07-30T21:31:09.167Z,2.58
2022-07-30T21:33:37.179Z,2.40
2022-07-30T21:36:05.459Z,2.50
2022-07-30T21:38:41.894Z,2.40
2022-07-30T21:41:15.123Z,2.30
2022-07-30T21:43:44.104Z,2.33
2022-07-30T21:46:12.102Z,2.60
2022-07-30T21:48:40.148Z,2.45
2022-07-30T21:51:09.395Z,2.30
2022-07-30T21:53:46.296Z,2.70
2022-07-30T21:56:16.316Z,2.47
2022-07-30T21:58:44.752Z,2.40
2022-07-30T22:01:17.884Z,2.60
2022-07-30T22:04:03.494Z,2.60
2022-07-30T22:06:34.832Z,3.10
2022-07-30T22:09:08.541Z,2.72
2022-07-30T22:11:48.099Z,2.58
2022-07-30T22:14:15.867Z,2.92
2022-07-30T22:16:46.095Z,2.63
2022-07-30T22:19:14.745Z,2.70
2022-07-30T22:21:42.922Z,2.78
2022-07-30T22:24:29.639Z,2.95
2022-07-30T22:27:01.658Z,2.83
2022-07-30T22:29:38.062Z,2.28
2022-07-30T22:32:07.836Z,2.60
2022-07-30T22:34:35.917Z,2.13
2022-07-30T22:37:04.148Z,2.50
2022-07-30T22:39:51.503Z,2.33
2022-07-30T22:42:24.038Z,2.63
2022-07-30T22:44:52.834Z,2.58
2022-07-30T22:50:09.345Z,2.60
2022-07-30T22:52:38.526Z,2.90
2022-07-30T22:55:08.961Z,2.60
2022-07-30T22:57:40.252Z,2.60
2022-07-30T23:00:12.039Z,2.90
2022-07-30T23:02:39.943Z,2.35
2022-07-30T23:05:08.571Z,2.60
2022-07-30T23:07:39.835Z,3.05
2022-07-30T23:10:18.242Z,2.95
2022-07-30T23:12:16.563Z,3.10
2022-07-30T23:12:16.712Z,2.42
2022-07-30T23:12:30.469Z,2.53
2022-07-30T23:12:48.927Z,2.67
2022-07-30T23:15:16.761Z,2.75
2022-07-30T23:17:44.955Z,3.60
2022-07-30T23:20:14.673Z,2.85
2022-07-30T23:22:42.800Z,3.33
2022-07-30T23:25:12.245Z,2.70
2022-07-30T23:27:40.699Z,2.60
2022-07-30T23:30:11.891Z,2.40
2022-07-30T23:32:40.193Z,2.78
2022-07-30T23:35:09.621Z,2.30
2022-07-30T23:37:48.361Z,2.88
2022-07-30T23:40:18.204Z,2.47
2022-07-30T23:42:46.076Z,3.03
2022-07-30T23:45:15.369Z,2.50
2022-07-30T23:48:00.916Z,2.47
2022-07-30T23:50:30.150Z,2.58
2022-07-30T23:52:58.209Z,2.50
2022-07-30T23:55:26.928Z,2.38
2022-07-30T23:57:54.723Z,3.17
